createdAt,value
2019-01-17T00:00:01.617Z,54.90
2019-01-17T00:02:48.058Z,55.00
2019-01-17T00:05:29.054Z,55.10
2019-01-17T00:08:17.362Z,55.00
2019-01-17T00:10:55.242Z,55.10
2019-01-17T00:13:41.494Z,55.10
2019-01-17T00:16:28.070Z,55.10
2019-01-17T00:19:32.955Z,55.00
2019-01-17T00:22:20.894Z,55.00
2019-01-17T00:25:11.746Z,55.10
2019-01-17T00:28:02.608Z,55.10
2019-01-17T00:30:49.126Z,55.10
2019-01-17T00:33:35.874Z,55.10
2019-01-17T00:36:26.676Z,55.10
2019-01-17T00:39:32.680Z,55.10
2019-01-17T00:42:20.494Z,55.10
2019-01-17T00:45:07.002Z,55.10
2019-01-17T00:48:04.064Z,55.00
2019-01-17T00:50:51.876Z,55.00
2019-01-17T00:53:41.768Z,55.00
2019-01-17T00:56:28.729Z,55.00
2019-01-17T00:59:22.716Z,54.80
2019-01-17T01:02:16.375Z,54.80
2019-01-17T01:05:10.177Z,54.80
2019-01-17T01:08:06.844Z,54.80
2019-01-17T01:10:54.651Z,54.90
2019-01-17T01:13:45.350Z,54.90
2019-01-17T01:16:36.281Z,55.00
2019-01-17T01:19:22.495Z,55.00
2019-01-17T01:22:09.990Z,55.00
2019-01-17T01:24:49.331Z,55.00
2019-01-17T01:27:35.835Z,55.00
2019-01-17T01:30:27.369Z,55.00
2019-01-17T01:33:13.590Z,55.00
2019-01-17T01:36:16.287Z,55.10
2019-01-17T01:39:06.867Z,55.00
2019-01-17T01:41:50.809Z,54.90
2019-01-17T01:44:51.652Z,54.90
2019-01-17T01:47:42.969Z,55.00
2019-01-17T01:50:25.643Z,55.00
2019-01-17T01:53:05.222Z,55.00
2019-01-17T01:55:34.895Z,55.00
2019-01-17T01:58:04.749Z,55.00
2019-01-17T02:00:33.676Z,55.00
2019-01-17T02:03:03.441Z,55.00
2019-01-17T02:05:32.171Z,55.00
2019-01-17T02:08:00.924Z,55.00
2019-01-17T02:10:29.765Z,55.00
2019-01-17T02:12:58.611Z,55.00
2019-01-17T02:15:27.392Z,55.00
2019-01-17T02:17:56.242Z,55.00
2019-01-17T02:20:25.090Z,55.00
2019-01-17T02:22:53.850Z,55.10
2019-01-17T02:25:22.609Z,55.00
2019-01-17T02:27:51.923Z,55.10
2019-01-17T02:30:20.701Z,55.00
2019-01-17T02:32:49.511Z,55.00
2019-01-17T02:35:18.322Z,55.00
2019-01-17T02:37:47.095Z,55.00
2019-01-17T02:40:15.844Z,55.00
2019-01-17T02:42:44.673Z,55.00
2019-01-17T02:45:14.470Z,54.90
2019-01-17T02:47:43.231Z,54.70
2019-01-17T02:50:12.139Z,54.80
2019-01-17T02:52:40.916Z,54.80
2019-01-17T02:55:10.076Z,54.80
2019-01-17T02:57:38.837Z,54.90
2019-01-17T03:00:11.065Z,54.90
2019-01-17T03:02:39.835Z,55.00
2019-01-17T03:05:08.604Z,55.00
2019-01-17T03:07:37.373Z,55.00
2019-01-17T03:10:09.071Z,55.00
2019-01-17T03:12:37.841Z,54.90
2019-01-17T03:15:07.272Z,55.00
2019-01-17T03:17:36.038Z,55.10
2019-01-17T03:20:06.328Z,55.00
2019-01-17T03:22:35.134Z,55.10
2019-01-17T03:25:03.996Z,55.10
2019-01-17T03:27:32.762Z,55.10
2019-01-17T03:30:01.526Z,55.10
2019-01-17T03:32:30.274Z,55.10
2019-01-17T03:34:59.034Z,55.10
2019-01-17T03:37:27.885Z,55.10
2019-01-17T03:39:56.663Z,55.20
2019-01-17T03:42:25.418Z,55.20
2019-01-17T03:44:54.985Z,54.90
2019-01-17T03:47:24.201Z,54.90
2019-01-17T03:49:52.951Z,54.80
2019-01-17T03:52:21.741Z,54.80
2019-01-17T03:54:53.917Z,54.80
2019-01-17T03:57:22.743Z,54.90
2019-01-17T03:59:51.484Z,54.90
2019-01-17T04:02:20.255Z,54.90
2019-01-17T04:04:49.016Z,55.00
2019-01-17T04:07:17.900Z,55.00
2019-01-17T04:09:46.669Z,55.00
2019-01-17T04:12:15.430Z,54.90
2019-01-17T04:14:44.327Z,54.90
2019-01-17T04:17:13.069Z,54.90
2019-01-17T04:19:41.853Z,54.90
2019-01-17T04:22:10.611Z,55.00
2019-01-17T04:24:41.706Z,55.70
2019-01-17T04:27:10.449Z,55.10
2019-01-17T04:29:39.197Z,55.10
2019-01-17T04:32:07.985Z,55.10
2019-01-17T04:34:36.741Z,55.20
2019-01-17T04:37:05.527Z,55.20
2019-01-17T04:39:34.363Z,55.10
2019-01-17T04:42:03.125Z,55.20
2019-01-17T04:44:31.876Z,55.20
2019-01-17T04:47:00.619Z,55.10
2019-01-17T04:49:29.395Z,55.10
2019-01-17T04:51:58.264Z,54.90
2019-01-17T04:54:27.047Z,54.90
2019-01-17T04:56:55.884Z,55.00
2019-01-17T04:59:24.670Z,55.00
2019-01-17T05:01:53.424Z,55.00
2019-01-17T05:04:22.189Z,55.00
2019-01-17T05:06:50.961Z,54.90
2019-01-17T05:09:19.729Z,55.00
2019-01-17T05:11:48.515Z,55.00
2019-01-17T05:14:17.617Z,55.10
2019-01-17T05:16:46.377Z,55.00
2019-01-17T05:19:15.218Z,55.20
2019-01-17T05:21:44.065Z,55.00
2019-01-17T05:24:12.885Z,55.10
2019-01-17T05:26:41.641Z,54.90
2019-01-17T05:29:10.420Z,54.90
2019-01-17T05:31:39.166Z,55.10
2019-01-17T05:34:07.987Z,55.00
2019-01-17T05:36:36.727Z,55.00
2019-01-17T05:39:07.492Z,55.00
2019-01-17T05:41:36.316Z,55.00
2019-01-17T05:44:05.088Z,55.00
2019-01-17T05:46:33.845Z,55.00
2019-01-17T05:49:02.604Z,55.00
2019-01-17T05:51:31.398Z,55.00
2019-01-17T05:54:00.157Z,54.90
2019-01-17T05:56:29.097Z,54.60
2019-01-17T05:58:57.865Z,54.70
2019-01-17T06:01:26.632Z,54.80
2019-01-17T06:03:55.477Z,54.90
2019-01-17T06:06:24.230Z,54.90
2019-01-17T06:08:53.002Z,54.90
2019-01-17T06:11:21.750Z,54.90
2019-01-17T06:13:50.529Z,55.00
2019-01-17T06:16:19.284Z,55.00
2019-01-17T06:18:48.151Z,55.00
2019-01-17T06:21:16.900Z,55.00
2019-01-17T06:23:45.677Z,55.00
2019-01-17T06:26:14.429Z,55.00
2019-01-17T06:28:43.180Z,55.60
2019-01-17T06:31:11.956Z,55.00
2019-01-17T06:33:40.784Z,54.90
2019-01-17T06:36:09.712Z,55.00
2019-01-17T06:38:38.456Z,54.90
2019-01-17T06:41:07.233Z,55.00
2019-01-17T06:43:36.055Z,55.00
2019-01-17T06:46:04.834Z,55.00
2019-01-17T06:48:33.758Z,55.00
2019-01-17T06:51:02.518Z,55.00
2019-01-17T06:53:31.283Z,55.00
2019-01-17T06:56:00.038Z,55.00
2019-01-17T06:58:28.862Z,55.00
2019-01-17T07:00:57.628Z,55.00
2019-01-17T07:03:26.550Z,55.00
2019-01-17T07:05:55.298Z,55.00
2019-01-17T07:08:24.092Z,55.00
2019-01-17T07:10:52.971Z,55.10
2019-01-17T07:13:21.756Z,55.00
2019-01-17T07:15:50.520Z,55.00
2019-01-17T07:18:19.288Z,55.00
2019-01-17T07:20:48.036Z,55.10
2019-01-17T07:23:16.824Z,55.10
2019-01-17T07:25:45.591Z,55.00
2019-01-17T07:28:14.340Z,55.00
2019-01-17T07:30:43.204Z,55.10
2019-01-17T07:33:11.983Z,55.10
2019-01-17T07:35:40.755Z,55.00
2019-01-17T07:38:09.490Z,55.00
2019-01-17T07:40:38.302Z,55.00
2019-01-17T07:43:07.053Z,55.00
2019-01-17T07:45:35.826Z,54.90
2019-01-17T07:48:04.664Z,55.00
2019-01-17T07:50:33.401Z,55.00
2019-01-17T07:53:02.270Z,55.00
2019-01-17T07:55:31.050Z,55.00
2019-01-17T07:57:59.792Z,55.00
2019-01-17T08:00:28.559Z,55.00
2019-01-17T08:02:57.447Z,55.00
2019-01-17T08:05:26.255Z,55.10
2019-01-17T08:07:55.102Z,55.10
2019-01-17T08:10:23.856Z,55.20
2019-01-17T08:12:52.614Z,55.10
2019-01-17T08:15:21.457Z,55.20
2019-01-17T08:17:50.202Z,55.20
2019-01-17T08:20:21.227Z,55.20
2019-01-17T08:22:49.976Z,55.30
2019-01-17T08:25:18.733Z,55.30
2019-01-17T08:27:47.496Z,55.30
2019-01-17T08:30:18.764Z,55.30
2019-01-17T08:32:47.540Z,55.30
2019-01-17T08:35:16.430Z,55.30
2019-01-17T08:37:45.220Z,55.30
2019-01-17T08:40:20.402Z,55.30
2019-01-17T08:42:47.843Z,55.20
2019-01-17T08:45:16.642Z,55.10
2019-01-17T08:47:45.468Z,55.10
2019-01-17T08:50:14.422Z,55.00
2019-01-17T08:52:43.242Z,55.10
2019-01-17T08:55:12.025Z,55.00
2019-01-17T08:57:40.770Z,55.00
2019-01-17T09:00:15.184Z,55.00
2019-01-17T09:02:44.034Z,55.00
2019-01-17T09:05:12.782Z,55.00
2019-01-17T09:07:41.578Z,55.00
2019-01-17T09:10:13.596Z,55.00
2019-01-17T09:12:42.380Z,55.10
2019-01-17T09:15:12.695Z,55.20
2019-01-17T09:17:41.481Z,55.20
2019-01-17T09:20:12.502Z,55.30
2019-01-17T09:22:41.250Z,55.40
2019-01-17T09:25:11.592Z,55.30
2019-01-17T09:27:40.358Z,55.40
2019-01-17T09:30:11.729Z,55.30
2019-01-17T09:32:40.566Z,55.10
2019-01-17T09:35:10.290Z,55.10
2019-01-17T09:37:39.043Z,55.10
2019-01-17T09:40:09.857Z,55.20
2019-01-17T09:42:38.696Z,55.20
2019-01-17T09:45:07.835Z,55.20
2019-01-17T09:47:36.614Z,55.30
2019-01-17T09:50:07.525Z,55.40
2019-01-17T09:52:36.302Z,55.50
2019-01-17T09:55:05.201Z,55.50
2019-01-17T09:57:33.948Z,55.50
2019-01-17T10:00:02.749Z,55.60
2019-01-17T10:02:31.489Z,55.70
2019-01-17T10:05:00.256Z,55.60
2019-01-17T10:07:29.087Z,55.60
2019-01-17T10:09:57.866Z,55.70
2019-01-17T10:12:26.612Z,55.80
2019-01-17T10:14:55.651Z,55.60
2019-01-17T10:17:46.949Z,55.70
2019-01-17T10:21:15.110Z,55.80
2019-01-17T10:24:41.584Z,55.80
2019-01-17T10:27:42.237Z,55.80
2019-01-17T10:30:33.457Z,55.70
2019-01-17T10:33:36.045Z,55.80
2019-01-17T10:36:52.426Z,55.80
2019-01-17T10:40:02.346Z,55.80
2019-01-17T10:43:09.641Z,55.80
2019-01-17T10:46:12.664Z,55.80
2019-01-17T10:49:25.875Z,55.90
2019-01-17T10:52:32.047Z,55.90
2019-01-17T10:55:33.657Z,55.90
2019-01-17T10:58:18.539Z,55.70
2019-01-17T11:01:20.018Z,56.30
2019-01-17T11:04:17.800Z,55.70
2019-01-17T11:07:42.987Z,55.70
2019-01-17T11:10:49.857Z,55.70
2019-01-17T11:13:45.760Z,55.70
2019-01-17T11:16:54.304Z,55.70
2019-01-17T11:19:57.087Z,55.80
2019-01-17T11:22:52.813Z,55.80
2019-01-17T11:25:35.243Z,55.80
2019-01-17T11:28:44.183Z,55.80
2019-01-17T11:31:43.927Z,55.80
2019-01-17T11:35:08.953Z,55.70
2019-01-17T11:38:10.183Z,55.70
2019-01-17T11:41:05.015Z,55.70
2019-01-17T11:44:26.959Z,55.50
2019-01-17T11:47:15.661Z,55.50
2019-01-17T11:50:18.135Z,55.50
2019-01-17T11:53:23.377Z,55.50
2019-01-17T11:56:32.457Z,55.60
2019-01-17T11:59:35.331Z,55.60
2019-01-17T12:02:51.379Z,55.60
2019-01-17T12:05:20.215Z,55.60
2019-01-17T12:07:48.985Z,55.60
2019-01-17T12:10:17.746Z,55.70
2019-01-17T12:12:46.875Z,55.70
2019-01-17T12:15:15.702Z,55.70
2019-01-17T12:17:44.463Z,55.50
2019-01-17T12:20:13.227Z,55.60
2019-01-17T12:22:42.037Z,55.40
2019-01-17T12:25:10.887Z,55.30
2019-01-17T12:27:42.638Z,55.30
2019-01-17T12:30:13.279Z,55.30
2019-01-17T12:32:42.041Z,55.40
2019-01-17T12:35:11.859Z,55.40
2019-01-17T12:37:40.735Z,55.10
2019-01-17T12:40:12.274Z,55.10
2019-01-17T12:42:41.059Z,55.20
2019-01-17T12:45:10.481Z,55.30
2019-01-17T12:47:39.293Z,55.30
2019-01-17T12:50:12.403Z,55.30
2019-01-17T12:52:41.184Z,55.30
2019-01-17T12:55:09.961Z,55.20
2019-01-17T12:57:38.765Z,55.30
2019-01-17T13:00:11.477Z,55.20
2019-01-17T13:02:40.512Z,55.20
2019-01-17T13:05:09.384Z,55.20
2019-01-17T13:07:38.214Z,55.10
2019-01-17T13:10:08.455Z,55.10
2019-01-17T13:12:37.338Z,55.10
2019-01-17T13:15:07.123Z,55.10
2019-01-17T13:17:35.884Z,55.10
2019-01-17T13:20:05.286Z,55.20
2019-01-17T13:22:34.036Z,55.00
2019-01-17T13:25:04.132Z,55.20
2019-01-17T13:27:33.028Z,55.20
2019-01-17T13:30:01.814Z,55.20
2019-01-17T13:32:30.644Z,55.30
2019-01-17T13:34:59.559Z,55.30
2019-01-17T13:37:28.371Z,55.40
2019-01-17T13:39:57.121Z,55.40
2019-01-17T13:42:25.880Z,55.30
2019-01-17T13:44:54.659Z,55.30
2019-01-17T13:47:23.437Z,56.00
2019-01-17T13:49:52.190Z,55.40
2019-01-17T13:52:20.989Z,55.40
2019-01-17T13:54:49.887Z,55.40
2019-01-17T13:57:18.643Z,55.30
2019-01-17T13:59:47.518Z,55.30
2019-01-17T14:02:16.279Z,55.30
2019-01-17T14:04:45.053Z,55.20
2019-01-17T14:07:13.945Z,55.20
2019-01-17T14:09:42.795Z,55.10
2019-01-17T14:12:11.579Z,55.10
2019-01-17T14:14:40.802Z,54.90
2019-01-17T14:17:09.621Z,55.60
2019-01-17T14:19:38.533Z,55.00
2019-01-17T14:22:07.359Z,55.10
2019-01-17T14:24:42.396Z,55.00
2019-01-17T14:27:14.150Z,55.00
2019-01-17T14:29:41.992Z,55.10
2019-01-17T14:32:10.757Z,55.10
2019-01-17T14:34:39.599Z,55.10
2019-01-17T14:37:08.357Z,55.00
2019-01-17T14:39:37.843Z,55.10
2019-01-17T14:42:06.620Z,55.10
2019-01-17T14:44:35.396Z,55.10
2019-01-17T14:47:04.156Z,55.00
2019-01-17T14:49:32.993Z,55.20
2019-01-17T14:52:01.787Z,55.20
2019-01-17T14:54:30.585Z,55.20
2019-01-17T14:56:59.380Z,55.20
2019-01-17T14:59:28.145Z,55.20
2019-01-17T15:01:56.912Z,55.20
2019-01-17T15:04:25.778Z,55.30
2019-01-17T15:06:54.547Z,55.20
2019-01-17T15:09:23.336Z,55.10
2019-01-17T15:11:52.084Z,55.10
2019-01-17T15:14:20.844Z,55.00
2019-01-17T15:16:49.626Z,55.00
2019-01-17T15:19:18.452Z,55.10
2019-01-17T15:21:47.293Z,55.10
2019-01-17T15:24:16.056Z,55.10
2019-01-17T15:26:44.839Z,55.00
2019-01-17T15:29:13.610Z,55.00
2019-01-17T15:31:42.464Z,55.00
2019-01-17T15:34:11.315Z,55.10
2019-01-17T15:36:40.174Z,55.20
2019-01-17T15:39:09.720Z,55.20
2019-01-17T15:41:38.510Z,55.20
2019-01-17T15:44:07.318Z,55.20
2019-01-17T15:46:36.104Z,55.10
2019-01-17T15:49:04.944Z,55.00
2019-01-17T15:51:33.702Z,55.00
2019-01-17T15:54:02.544Z,55.20
2019-01-17T15:56:31.482Z,55.00
2019-01-17T15:59:00.335Z,55.00
2019-01-17T16:01:29.139Z,55.10
2019-01-17T16:03:57.898Z,55.10
2019-01-17T16:06:26.689Z,55.10
2019-01-17T16:08:55.454Z,55.30
2019-01-17T16:11:24.261Z,55.00
2019-01-17T16:13:53.209Z,55.00
2019-01-17T16:16:22.140Z,55.10
2019-01-17T16:18:51.099Z,54.90
2019-01-17T16:21:19.964Z,54.80
2019-01-17T16:23:48.748Z,54.80
2019-01-17T16:26:18.488Z,54.90
2019-01-17T16:28:47.480Z,54.90
2019-01-17T16:31:16.284Z,54.90
2019-01-17T16:33:45.100Z,54.80
2019-01-17T16:36:14.007Z,54.90
2019-01-17T16:38:42.858Z,55.00
2019-01-17T16:41:11.637Z,55.00
2019-01-17T16:43:40.542Z,55.10
2019-01-17T16:46:09.352Z,55.00
2019-01-17T16:48:38.230Z,55.00
2019-01-17T16:51:07.067Z,55.00
2019-01-17T16:53:35.856Z,55.00
2019-01-17T16:56:04.892Z,55.00
2019-01-17T16:58:33.792Z,55.00
2019-01-17T17:01:02.640Z,55.00
2019-01-17T17:03:31.554Z,55.00
2019-01-17T17:06:00.531Z,55.00
2019-01-17T17:08:29.587Z,55.10
2019-01-17T17:10:58.486Z,55.10
2019-01-17T17:13:27.436Z,55.00
2019-01-17T17:15:56.248Z,55.00
2019-01-17T17:18:25.125Z,55.00
2019-01-17T17:20:53.992Z,55.00
2019-01-17T17:23:22.956Z,54.80
2019-01-17T17:25:51.943Z,54.90
2019-01-17T17:28:20.820Z,54.90
2019-01-17T17:30:50.828Z,54.90
2019-01-17T17:33:20.612Z,54.90
2019-01-17T17:35:49.494Z,54.80
2019-01-17T17:38:18.448Z,54.90
2019-01-17T17:40:47.312Z,55.00
2019-01-17T17:43:16.273Z,55.00
2019-01-17T17:45:45.136Z,55.00
2019-01-17T17:48:13.994Z,54.80
2019-01-17T17:50:42.799Z,54.70
2019-01-17T17:53:11.718Z,54.80
2019-01-17T17:55:40.514Z,54.70
2019-01-17T17:58:09.469Z,54.70
2019-01-17T18:01:00.357Z,54.70
2019-01-17T18:03:29.233Z,54.60
2019-01-17T18:05:58.180Z,54.50
2019-01-17T18:08:27.144Z,54.60
2019-01-17T18:10:56.179Z,54.60
2019-01-17T18:13:25.053Z,54.70
2019-01-17T18:15:54.021Z,54.70
2019-01-17T18:18:23.064Z,54.60
2019-01-17T18:20:51.989Z,54.70
2019-01-17T18:23:20.885Z,54.80
2019-01-17T18:25:49.962Z,54.80
2019-01-17T18:28:19.008Z,54.80
2019-01-17T18:30:50.578Z,54.80
2019-01-17T18:33:19.730Z,54.80
2019-01-17T18:35:48.662Z,54.90
2019-01-17T18:38:17.818Z,54.80
2019-01-17T18:40:46.835Z,54.80
2019-01-17T18:43:15.911Z,54.60
2019-01-17T18:45:44.921Z,54.80
2019-01-17T18:48:14.011Z,54.80
2019-01-17T18:50:43.149Z,54.80
2019-01-17T18:53:12.148Z,54.80
2019-01-17T18:55:41.281Z,54.90
2019-01-17T18:58:15.490Z,54.80
2019-01-17T19:00:41.234Z,54.70
2019-01-17T19:03:10.500Z,54.90
2019-01-17T19:05:39.591Z,54.90
2019-01-17T19:08:09.260Z,55.00
2019-01-17T19:10:38.347Z,54.90
2019-01-17T19:13:08.553Z,54.90
2019-01-17T19:15:37.954Z,54.90
2019-01-17T19:18:07.082Z,55.00
2019-01-17T19:20:36.485Z,55.00
2019-01-17T19:23:09.204Z,55.00
2019-01-17T19:25:38.295Z,55.00
2019-01-17T19:28:07.350Z,54.80
2019-01-17T19:30:36.461Z,55.20
2019-01-17T19:33:05.880Z,54.60
2019-01-17T19:35:36.422Z,54.70
2019-01-17T19:38:08.208Z,54.70
2019-01-17T19:40:37.659Z,54.60
2019-01-17T19:43:06.821Z,54.50
2019-01-17T19:45:36.251Z,54.60
2019-01-17T19:48:06.222Z,54.70
2019-01-17T19:50:38.718Z,54.70
2019-01-17T19:53:09.603Z,54.70
2019-01-17T19:55:40.565Z,54.70
2019-01-17T19:58:09.917Z,54.70
2019-01-17T20:00:40.042Z,54.70
2019-01-17T20:03:12.828Z,54.70
2019-01-17T20:05:46.045Z,54.70
2019-01-17T20:08:15.021Z,54.50
2019-01-17T20:10:45.301Z,55.10
2019-01-17T20:13:16.735Z,54.60
2019-01-17T20:15:47.464Z,55.20
2019-01-17T20:18:17.017Z,54.60
2019-01-17T20:20:47.626Z,54.70
2019-01-17T20:23:18.045Z,54.50
2019-01-17T20:25:50.392Z,54.60
2019-01-17T20:28:19.479Z,55.20
2019-01-17T20:30:48.595Z,54.60
2019-01-17T20:33:17.786Z,54.70
2019-01-17T20:35:47.736Z,54.70
2019-01-17T20:38:19.161Z,54.70
2019-01-17T20:40:48.355Z,54.60
2019-01-17T20:43:20.358Z,54.60
2019-01-17T20:45:51.182Z,54.60
2019-01-17T20:48:20.278Z,54.60
2019-01-17T20:50:49.403Z,55.20
2019-01-17T20:53:18.997Z,54.40
2019-01-17T20:55:48.151Z,54.50
2019-01-17T20:58:19.025Z,54.60
2019-01-17T21:01:30.491Z,54.60
2019-01-17T21:04:01.454Z,54.50
2019-01-17T21:06:31.629Z,54.50
2019-01-17T21:09:00.749Z,54.50
2019-01-17T21:11:29.927Z,54.60
2019-01-17T21:13:59.710Z,54.60
2019-01-17T21:16:29.349Z,54.60
2019-01-17T21:18:58.965Z,54.60
2019-01-17T21:21:27.984Z,54.60
2019-01-17T21:23:57.008Z,54.60
2019-01-17T21:26:25.931Z,54.60
2019-01-17T21:28:55.043Z,54.60
2019-01-17T21:31:24.361Z,54.60
2019-01-17T21:33:53.335Z,54.40
2019-01-17T21:36:22.407Z,54.40
2019-01-17T21:38:51.603Z,54.40
2019-01-17T21:41:21.032Z,54.40
2019-01-17T21:43:52.515Z,54.50
2019-01-17T21:46:21.499Z,54.60
2019-01-17T21:48:50.487Z,54.50
2019-01-17T21:51:19.513Z,54.50
2019-01-17T21:53:48.336Z,54.50
2019-01-17T21:56:17.451Z,54.50
2019-01-17T21:58:46.379Z,54.70
2019-01-17T22:01:15.265Z,54.70
2019-01-17T22:03:44.166Z,54.50
2019-01-17T22:06:13.397Z,54.70
2019-01-17T22:08:42.291Z,54.50
2019-01-17T22:11:11.115Z,54.60
2019-01-17T22:13:40.023Z,54.60
2019-01-17T22:16:08.970Z,54.50
2019-01-17T22:18:37.927Z,54.60
2019-01-17T22:21:06.734Z,54.50
2019-01-17T22:23:35.757Z,54.50
2019-01-17T22:26:04.555Z,54.60
2019-01-17T22:28:33.437Z,54.40
2019-01-17T22:31:02.221Z,54.40
2019-01-17T22:33:31.099Z,54.40
2019-01-17T22:35:59.977Z,54.40
2019-01-17T22:38:28.773Z,54.20
2019-01-17T22:40:58.020Z,54.10
2019-01-17T22:43:26.829Z,54.20
2019-01-17T22:45:55.613Z,54.20
2019-01-17T22:48:24.455Z,54.20
2019-01-17T22:50:53.227Z,54.30
2019-01-17T22:53:22.088Z,54.30
2019-01-17T22:55:51.215Z,54.30
2019-01-17T22:58:19.991Z,54.40
2019-01-17T23:00:56.841Z,54.50
2019-01-17T23:03:31.783Z,54.40
2019-01-17T23:06:00.703Z,54.40
2019-01-17T23:08:29.461Z,54.40
2019-01-17T23:10:58.271Z,54.50
2019-01-17T23:13:27.569Z,54.50
2019-01-17T23:15:56.393Z,54.50
2019-01-17T23:18:25.160Z,54.50
2019-01-17T23:20:53.959Z,54.50
2019-01-17T23:23:22.819Z,54.50
2019-01-17T23:25:51.582Z,54.50
2019-01-17T23:28:20.418Z,54.50
2019-01-17T23:30:49.248Z,54.50
2019-01-17T23:33:18.075Z,54.60
2019-01-17T23:35:46.855Z,54.60
2019-01-17T23:38:15.685Z,54.60
2019-01-17T23:40:44.529Z,54.40
2019-01-17T23:43:13.282Z,54.30
2019-01-17T23:45:42.046Z,54.30
2019-01-17T23:48:10.812Z,54.30
2019-01-17T23:50:39.564Z,54.30
2019-01-17T23:53:08.339Z,54.30
2019-01-17T23:55:37.114Z,54.20
2019-01-17T23:58:05.865Z,54.90
